createdAt,value
2023-05-20T00:00:09.681Z,2.00
2023-05-20T00:01:09.638Z,3.40
2023-05-20T00:02:09.632Z,2.80
2023-05-20T00:03:09.676Z,3.00
2023-05-20T00:04:09.709Z,4.40
2023-05-20T00:05:09.654Z,2.00
2023-05-20T00:06:09.583Z,2.50
2023-05-20T00:07:09.550Z,3.40
2023-05-20T00:08:09.663Z,2.70
2023-05-20T00:09:09.571Z,3.60
2023-05-20T00:10:09.549Z,4.50
2023-05-20T00:11:09.508Z,4.60
2023-05-20T00:12:09.546Z,5.00
2023-05-20T00:13:09.494Z,5.90
2023-05-20T00:14:09.505Z,2.80
2023-05-20T00:15:09.467Z,3.90
2023-05-20T00:16:09.481Z,3.10
2023-05-20T00:17:09.448Z,3.80
2023-05-20T00:18:09.544Z,3.30
2023-05-20T00:19:09.493Z,2.80
2023-05-20T00:20:09.430Z,2.50
2023-05-20T00:21:09.409Z,4.70
2023-05-20T00:22:09.401Z,2.90
2023-05-20T00:23:09.407Z,2.80
2023-05-20T00:24:09.404Z,5.10
2023-05-20T00:25:09.363Z,5.10
2023-05-20T00:26:09.356Z,4.50
2023-05-20T00:27:09.337Z,3.10
2023-05-20T00:28:09.365Z,3.30
2023-05-20T00:29:09.318Z,2.80
2023-05-20T00:30:09.314Z,3.50
2023-05-20T00:31:09.281Z,2.90
2023-05-20T00:32:09.345Z,3.70
2023-05-20T00:33:09.353Z,3.00
2023-05-20T00:34:09.268Z,2.40
2023-05-20T00:35:09.288Z,4.90
2023-05-20T00:36:09.247Z,3.10
2023-05-20T00:37:09.265Z,2.60
2023-05-20T00:38:09.251Z,3.50
2023-05-20T00:39:09.228Z,3.40
2023-05-20T00:40:09.210Z,2.90
2023-05-20T00:41:09.227Z,3.70
2023-05-20T00:42:09.199Z,2.90
2023-05-20T00:43:09.258Z,3.10
2023-05-20T00:44:09.161Z,4.50
2023-05-20T00:45:09.146Z,3.80
2023-05-20T00:46:09.187Z,3.10
2023-05-20T00:47:09.153Z,2.90
2023-05-20T00:48:09.163Z,3.40
2023-05-20T00:49:09.108Z,3.40
2023-05-20T00:50:09.099Z,3.00
2023-05-20T00:51:09.118Z,2.70
2023-05-20T00:52:09.101Z,4.40
2023-05-20T00:53:09.055Z,4.30
2023-05-20T00:54:09.062Z,5.50
2023-05-20T00:55:09.048Z,4.60
2023-05-20T00:56:09.062Z,2.70
2023-05-20T00:57:09.022Z,4.20
2023-05-20T00:58:09.022Z,4.60
2023-05-20T00:59:08.997Z,3.60
2023-05-20T01:00:08.994Z,3.30
2023-05-20T01:01:09.091Z,3.40
2023-05-20T01:02:09.021Z,3.90
2023-05-20T01:03:09.037Z,5.70
2023-05-20T01:04:08.955Z,3.70
2023-05-20T01:05:08.944Z,2.80
2023-05-20T01:06:08.955Z,3.20
2023-05-20T01:07:08.904Z,4.10
2023-05-20T01:08:08.903Z,5.10
2023-05-20T01:09:08.894Z,2.50
2023-05-20T01:10:08.940Z,3.70
2023-05-20T01:11:08.864Z,2.70
2023-05-20T01:12:08.916Z,4.20
2023-05-20T01:13:08.852Z,3.50
2023-05-20T01:14:08.848Z,3.00
2023-05-20T01:15:08.836Z,3.50
2023-05-20T01:16:08.872Z,3.90
2023-05-20T01:17:08.800Z,3.40
2023-05-20T01:18:08.908Z,4.20
2023-05-20T01:19:08.911Z,5.10
2023-05-20T01:20:08.798Z,4.20
2023-05-20T01:21:08.759Z,4.50
2023-05-20T01:22:08.747Z,3.70
2023-05-20T01:23:08.739Z,4.80
2023-05-20T01:24:08.763Z,3.60
2023-05-20T01:25:08.720Z,3.10
2023-05-20T01:26:08.718Z,4.40
2023-05-20T01:27:08.703Z,4.60
2023-05-20T01:28:08.691Z,3.70
2023-05-20T01:29:08.694Z,3.50
2023-05-20T01:30:08.676Z,2.80
2023-05-20T01:31:08.701Z,4.40
2023-05-20T01:32:08.643Z,3.50
2023-05-20T01:33:08.734Z,5.00
2023-05-20T01:34:08.649Z,3.70
2023-05-20T01:35:08.612Z,4.80
2023-05-20T01:36:08.602Z,2.90
2023-05-20T01:37:08.586Z,3.10
2023-05-20T01:38:08.616Z,3.10
2023-05-20T01:39:08.569Z,2.80
2023-05-20T01:40:08.580Z,4.00
2023-05-20T01:41:08.536Z,4.00
2023-05-20T01:42:08.539Z,3.80
2023-05-20T01:43:08.536Z,4.70
2023-05-20T01:44:08.522Z,4.20
2023-05-20T01:45:08.512Z,3.30
2023-05-20T01:46:08.551Z,3.40
2023-05-20T01:47:08.514Z,4.10
2023-05-20T01:48:08.600Z,2.60
2023-05-20T01:49:08.457Z,3.60
2023-05-20T01:50:08.453Z,4.70
2023-05-20T01:51:08.432Z,4.10
2023-05-20T01:52:08.473Z,3.10
2023-05-20T01:53:08.416Z,3.00
2023-05-20T01:54:08.415Z,5.40
2023-05-20T01:55:08.393Z,3.40
2023-05-20T01:56:08.397Z,3.10
2023-05-20T01:57:08.406Z,4.00
2023-05-20T01:58:08.376Z,3.30
2023-05-20T01:59:08.357Z,3.50
2023-05-20T02:00:08.360Z,3.10
2023-05-20T02:01:08.391Z,2.80
2023-05-20T02:02:08.394Z,3.00
2023-05-20T02:03:08.326Z,3.50
2023-05-20T02:04:08.310Z,5.30
2023-05-20T02:05:08.289Z,3.00
2023-05-20T02:06:08.353Z,3.00
2023-05-20T02:07:08.262Z,4.60
2023-05-20T02:08:08.266Z,4.80
2023-05-20T02:09:08.253Z,4.30
2023-05-20T02:10:08.251Z,3.00
2023-05-20T02:11:08.253Z,3.10
2023-05-20T02:12:08.216Z,3.70
2023-05-20T02:13:08.217Z,3.70
2023-05-20T02:14:08.220Z,2.80
2023-05-20T02:15:08.210Z,5.60
2023-05-20T02:16:08.231Z,4.70
2023-05-20T02:17:08.180Z,3.20
2023-05-20T02:18:08.307Z,3.20
2023-05-20T02:19:08.198Z,4.80
2023-05-20T02:20:08.154Z,4.20
2023-05-20T02:21:08.125Z,3.70
2023-05-20T02:22:08.121Z,4.40
2023-05-20T02:23:08.120Z,5.00
2023-05-20T02:24:08.123Z,3.90
2023-05-20T02:25:08.101Z,2.80
2023-05-20T02:26:08.081Z,3.20
2023-05-20T02:27:08.072Z,4.30
2023-05-20T02:28:08.056Z,3.20
2023-05-20T02:29:08.117Z,3.50
2023-05-20T02:30:08.037Z,3.20
2023-05-20T02:31:08.025Z,6.70
2023-05-20T02:32:08.012Z,2.60
2023-05-20T02:33:08.042Z,5.60
2023-05-20T02:34:08.112Z,5.70
2023-05-20T02:35:07.995Z,3.80
2023-05-20T02:36:07.968Z,2.80
2023-05-20T02:37:07.978Z,3.90
2023-05-20T02:38:07.974Z,4.10
2023-05-20T02:39:07.952Z,5.10
2023-05-20T02:40:07.937Z,4.80
2023-05-20T02:41:07.914Z,4.90
2023-05-20T02:42:07.905Z,5.20
2023-05-20T02:43:07.921Z,4.40
2023-05-20T02:44:07.891Z,5.50
2023-05-20T02:45:07.878Z,3.90
2023-05-20T02:46:07.876Z,4.80
2023-05-20T02:47:07.853Z,3.80
2023-05-20T02:48:07.921Z,4.10
2023-05-20T02:49:07.843Z,2.80
2023-05-20T02:50:07.816Z,3.30
2023-05-20T02:51:07.807Z,4.40
2023-05-20T02:52:07.829Z,4.20
2023-05-20T02:53:07.808Z,3.90
2023-05-20T02:54:07.784Z,4.40
2023-05-20T02:55:07.754Z,3.70
2023-05-20T02:56:07.714Z,3.70
2023-05-20T02:57:07.754Z,3.50
2023-05-20T02:58:07.751Z,3.60
2023-05-20T02:59:07.718Z,5.20
2023-05-20T03:00:07.709Z,4.20
2023-05-20T03:01:07.694Z,5.20
2023-05-20T03:02:07.660Z,3.70
2023-05-20T03:03:07.778Z,3.70
2023-05-20T03:04:07.748Z,3.80
2023-05-20T03:05:07.655Z,4.40
2023-05-20T03:06:07.616Z,3.50
2023-05-20T03:07:07.596Z,5.10
2023-05-20T03:08:07.591Z,4.40
2023-05-20T03:09:07.624Z,6.40
2023-05-20T03:10:07.609Z,6.50
2023-05-20T03:11:07.583Z,4.40
2023-05-20T03:12:07.532Z,4.70
2023-05-20T03:13:07.512Z,3.60
2023-05-20T03:14:07.517Z,6.10
2023-05-20T03:15:07.494Z,5.50
2023-05-20T03:16:07.547Z,3.80
2023-05-20T03:17:07.475Z,4.10
2023-05-20T03:18:07.554Z,3.10
2023-05-20T03:19:07.468Z,4.00
2023-05-20T03:20:07.459Z,4.10
2023-05-20T03:21:07.452Z,5.20
2023-05-20T03:22:07.429Z,6.50
2023-05-20T03:23:07.417Z,3.40
2023-05-20T03:24:07.410Z,3.60
2023-05-20T03:25:07.427Z,3.50
2023-05-20T03:26:07.374Z,4.10
2023-05-20T03:27:07.384Z,3.40
2023-05-20T03:28:07.352Z,4.90
2023-05-20T03:29:07.352Z,4.30
2023-05-20T03:30:07.350Z,4.20
2023-05-20T03:31:07.349Z,4.70
2023-05-20T03:32:08.762Z,4.50
2023-05-20T03:33:07.300Z,3.10
2023-05-20T03:34:07.307Z,4.70
2023-05-20T03:35:07.318Z,5.70
2023-05-20T03:36:07.271Z,4.80
2023-05-20T03:37:07.271Z,4.20
2023-05-20T03:38:07.254Z,5.30
2023-05-20T03:39:07.264Z,7.90
2023-05-20T03:40:07.229Z,5.10
2023-05-20T03:41:07.216Z,3.40
2023-05-20T03:42:07.208Z,4.30
2023-05-20T03:43:07.192Z,3.90
2023-05-20T03:44:07.206Z,3.50
2023-05-20T03:45:07.183Z,6.00
2023-05-20T03:46:07.205Z,3.70
2023-05-20T03:47:07.206Z,5.90
2023-05-20T03:48:07.195Z,6.00
2023-05-20T03:49:07.147Z,5.00
2023-05-20T03:50:07.135Z,4.70
2023-05-20T03:51:07.109Z,5.00
2023-05-20T03:52:07.089Z,6.20
2023-05-20T03:53:07.112Z,5.00
2023-05-20T03:54:07.073Z,4.40
2023-05-20T03:55:07.070Z,4.20
2023-05-20T03:56:07.052Z,8.70
2023-05-20T03:57:07.048Z,4.50
2023-05-20T03:58:07.054Z,4.30
2023-05-20T03:59:07.033Z,3.90
2023-05-20T04:00:07.025Z,4.70
2023-05-20T04:01:07.006Z,5.70
2023-05-20T04:02:07.004Z,4.60
2023-05-20T04:03:07.071Z,4.80
2023-05-20T04:04:06.981Z,4.80
2023-05-20T04:05:06.969Z,4.60
2023-05-20T04:06:06.968Z,6.10
2023-05-20T04:07:07.228Z,4.80
2023-05-20T04:08:06.925Z,5.00
2023-05-20T04:09:06.911Z,4.00
2023-05-20T04:10:06.902Z,5.70
2023-05-20T04:11:06.896Z,5.40
2023-05-20T04:12:06.923Z,4.60
2023-05-20T04:13:06.874Z,4.70
2023-05-20T04:14:06.874Z,4.90
2023-05-20T04:15:06.861Z,4.70
2023-05-20T04:16:06.853Z,4.50
2023-05-20T04:17:07.560Z,3.80
2023-05-20T04:18:06.853Z,3.60
2023-05-20T04:19:06.844Z,4.70
2023-05-20T04:20:06.813Z,8.70
2023-05-20T04:21:06.817Z,5.10
2023-05-20T04:22:06.770Z,5.00
2023-05-20T04:23:06.771Z,6.00
2023-05-20T04:24:06.753Z,5.80
2023-05-20T04:25:06.759Z,4.90
2023-05-20T04:26:06.777Z,5.00
2023-05-20T04:27:06.732Z,5.30
2023-05-20T04:28:06.713Z,8.40
2023-05-20T04:29:06.718Z,4.80
2023-05-20T04:30:06.710Z,4.80
2023-05-20T04:31:06.728Z,4.60
2023-05-20T04:32:06.754Z,4.60
2023-05-20T04:33:06.760Z,6.40
2023-05-20T04:34:06.650Z,4.20
2023-05-20T04:35:06.651Z,4.90
2023-05-20T04:36:06.628Z,7.30
2023-05-20T04:37:06.620Z,5.90
2023-05-20T04:38:06.605Z,5.60
2023-05-20T04:39:06.602Z,7.20
2023-05-20T04:40:06.614Z,6.20
2023-05-20T04:41:06.578Z,7.20
2023-05-20T04:42:06.586Z,5.00
2023-05-20T04:43:06.555Z,5.10
2023-05-20T04:44:06.562Z,5.80
2023-05-20T04:45:06.569Z,5.10
2023-05-20T04:46:06.558Z,4.70
2023-05-20T04:47:06.531Z,6.00
2023-05-20T04:48:06.532Z,4.10
2023-05-20T04:49:06.510Z,5.10
2023-05-20T04:50:06.506Z,4.90
2023-05-20T04:51:06.474Z,8.50
2023-05-20T04:52:06.478Z,8.80
2023-05-20T04:53:06.456Z,7.20
2023-05-20T04:54:06.466Z,5.80
2023-05-20T04:55:06.433Z,5.40
2023-05-20T04:56:06.421Z,6.70
2023-05-20T04:57:06.421Z,6.50
2023-05-20T04:58:06.425Z,5.00
2023-05-20T04:59:06.611Z,8.60
2023-05-20T05:00:06.368Z,7.20
2023-05-20T05:01:06.423Z,6.70
2023-05-20T05:02:06.350Z,4.70
2023-05-20T05:03:06.448Z,6.10
2023-05-20T05:04:06.406Z,6.40
2023-05-20T05:05:06.642Z,5.90
2023-05-20T05:06:06.344Z,7.50
2023-05-20T05:07:06.330Z,6.70
2023-05-20T05:08:06.305Z,7.20
2023-05-20T05:09:06.281Z,6.20
2023-05-20T05:10:06.265Z,7.00
2023-05-20T05:11:06.301Z,7.20
2023-05-20T05:12:06.273Z,7.40
2023-05-20T05:13:06.266Z,7.20
2023-05-20T05:14:06.224Z,6.10
2023-05-20T05:15:06.219Z,5.60
2023-05-20T05:16:06.263Z,7.30
2023-05-20T05:17:06.209Z,7.00
2023-05-20T05:18:06.217Z,5.80
2023-05-20T05:19:06.199Z,5.90
2023-05-20T05:20:06.156Z,6.30
2023-05-20T05:21:06.166Z,7.70
2023-05-20T05:22:06.185Z,9.20
2023-05-20T05:23:06.134Z,5.70
2023-05-20T05:24:06.120Z,8.60
2023-05-20T05:25:06.108Z,9.30
2023-05-20T05:26:06.152Z,8.70
2023-05-20T05:27:06.124Z,5.90
2023-05-20T05:28:06.079Z,5.50
2023-05-20T05:29:06.067Z,8.80
2023-05-20T05:30:06.050Z,6.70
2023-05-20T05:31:06.253Z,6.60
2023-05-20T05:32:06.069Z,6.80
2023-05-20T05:33:06.182Z,6.00
2023-05-20T05:34:06.020Z,7.50
2023-05-20T05:35:08.062Z,6.80
2023-05-20T05:36:06.007Z,6.70
2023-05-20T05:37:05.991Z,8.30
2023-05-20T05:38:05.966Z,7.40
2023-05-20T05:39:05.981Z,7.00
2023-05-20T05:40:05.973Z,6.00
2023-05-20T05:41:05.971Z,7.20
2023-05-20T05:42:05.959Z,7.20
2023-05-20T05:43:05.917Z,7.70
2023-05-20T05:44:05.897Z,5.80
2023-05-20T05:45:05.914Z,5.50
2023-05-20T05:46:05.883Z,9.80
2023-05-20T05:47:06.008Z,8.10
2023-05-20T05:48:05.904Z,7.20
2023-05-20T05:49:05.868Z,6.50
2023-05-20T05:50:05.849Z,7.10
2023-05-20T05:51:05.837Z,6.40
2023-05-20T05:52:05.812Z,6.80
2023-05-20T05:53:05.830Z,9.70
2023-05-20T05:54:05.816Z,6.80
2023-05-20T05:55:05.796Z,5.60
2023-05-20T05:56:05.774Z,10.60
2023-05-20T05:57:06.573Z,6.60
2023-05-20T05:58:05.754Z,7.20
2023-05-20T05:59:05.878Z,6.80
2023-05-20T06:00:05.730Z,6.40
2023-05-20T06:01:05.765Z,6.00
2023-05-20T06:02:05.752Z,5.80
2023-05-20T06:03:05.788Z,7.60
2023-05-20T06:04:05.834Z,7.30
2023-05-20T06:05:05.690Z,7.00
2023-05-20T06:06:05.681Z,7.60
2023-05-20T06:07:05.673Z,7.50
2023-05-20T06:08:05.671Z,6.10
2023-05-20T06:09:05.648Z,6.60
2023-05-20T06:10:05.627Z,6.20
2023-05-20T06:11:05.609Z,5.50
2023-05-20T06:12:05.596Z,6.40
2023-05-20T06:13:05.614Z,6.20
2023-05-20T06:14:05.618Z,7.80
2023-05-20T06:15:05.577Z,7.30
2023-05-20T06:16:05.574Z,6.60
2023-05-20T06:17:05.721Z,7.20
2023-05-20T06:18:05.620Z,6.00
2023-05-20T06:19:05.597Z,6.50
2023-05-20T06:20:05.525Z,6.40
2023-05-20T06:21:05.512Z,7.50
2023-05-20T06:22:05.505Z,6.60
2023-05-20T06:23:05.516Z,8.00
2023-05-20T06:24:05.469Z,8.40
2023-05-20T06:25:05.473Z,7.20
2023-05-20T06:26:05.466Z,6.60
2023-05-20T06:27:05.473Z,7.30
2023-05-20T06:28:05.433Z,6.40
2023-05-20T06:29:05.422Z,6.60
2023-05-20T06:30:05.416Z,6.40
2023-05-20T06:31:05.468Z,7.10
2023-05-20T06:32:05.423Z,7.30
2023-05-20T06:33:05.418Z,8.10
2023-05-20T06:34:05.370Z,7.60
2023-05-20T06:35:05.373Z,7.20
2023-05-20T06:36:05.405Z,8.50
2023-05-20T06:37:05.352Z,6.40
2023-05-20T06:38:05.342Z,6.50
2023-05-20T06:39:05.996Z,7.20
2023-05-20T06:40:05.324Z,9.20
2023-05-20T06:41:05.330Z,7.20
2023-05-20T06:42:05.323Z,8.20
2023-05-20T06:43:05.287Z,8.80
2023-05-20T06:44:05.267Z,6.80
2023-05-20T06:45:05.808Z,11.00
2023-05-20T06:46:05.273Z,9.90
2023-05-20T06:47:05.237Z,7.70
2023-05-20T06:48:05.266Z,9.90
2023-05-20T06:49:05.224Z,8.20
2023-05-20T06:50:05.212Z,8.10
2023-05-20T06:51:05.196Z,9.40
2023-05-20T06:52:05.190Z,7.00
2023-05-20T06:53:05.175Z,7.20
2023-05-20T06:54:05.176Z,7.30
2023-05-20T06:55:05.168Z,7.80
2023-05-20T06:56:05.133Z,7.50
2023-05-20T06:57:05.130Z,8.70
2023-05-20T06:58:05.113Z,6.60
2023-05-20T06:59:05.158Z,9.00
2023-05-20T07:00:05.205Z,6.70
2023-05-20T07:01:05.192Z,7.30
2023-05-20T07:02:05.159Z,8.00
2023-05-20T07:03:05.118Z,6.60
2023-05-20T07:04:05.228Z,7.00
2023-05-20T07:05:05.045Z,5.70
2023-05-20T07:06:05.185Z,6.50
2023-05-20T07:07:05.019Z,7.60
2023-05-20T07:08:05.001Z,8.70
2023-05-20T07:09:05.028Z,6.80
2023-05-20T07:10:04.992Z,10.70
2023-05-20T07:11:04.979Z,4.70
2023-05-20T07:12:04.973Z,8.20
2023-05-20T07:13:04.970Z,7.00
2023-05-20T07:14:04.958Z,8.50
2023-05-20T07:15:04.952Z,10.10
2023-05-20T07:16:04.973Z,6.60
2023-05-20T07:17:04.921Z,7.20
2023-05-20T07:18:05.047Z,6.60
2023-05-20T07:19:04.952Z,7.10
2023-05-20T07:20:04.873Z,7.50
2023-05-20T07:21:04.865Z,6.00
2023-05-20T07:22:04.868Z,7.90
2023-05-20T07:23:04.870Z,8.00
2023-05-20T07:24:04.829Z,7.60
2023-05-20T07:25:04.837Z,9.40
2023-05-20T07:26:04.816Z,6.00
2023-05-20T07:27:04.820Z,8.60
2023-05-20T07:28:04.807Z,6.40
2023-05-20T07:29:04.797Z,6.90
2023-05-20T07:30:04.765Z,6.80
2023-05-20T07:31:04.771Z,9.70
2023-05-20T07:32:04.813Z,6.80
2023-05-20T07:33:04.806Z,7.20
2023-05-20T07:34:04.714Z,7.80
2023-05-20T07:35:04.720Z,6.10
2023-05-20T07:36:04.712Z,6.90
2023-05-20T07:37:04.721Z,7.10
2023-05-20T07:38:04.696Z,7.40
2023-05-20T07:39:07.841Z,7.60
2023-05-20T07:40:04.683Z,8.40
2023-05-20T07:41:04.661Z,7.10
2023-05-20T07:42:04.673Z,8.80
2023-05-20T07:43:04.637Z,7.20
2023-05-20T07:44:04.625Z,6.90
2023-05-20T07:45:04.624Z,7.40
2023-05-20T07:46:04.636Z,7.70
2023-05-20T07:47:04.593Z,6.00
2023-05-20T07:48:04.632Z,7.30
2023-05-20T07:49:04.572Z,10.60
2023-05-20T07:50:04.562Z,7.50
2023-05-20T07:51:04.556Z,7.70
2023-05-20T07:52:04.549Z,7.80
2023-05-20T07:53:04.548Z,8.40
2023-05-20T07:54:04.527Z,6.80
2023-05-20T07:55:04.518Z,7.10
2023-05-20T07:56:04.536Z,8.10
2023-05-20T07:57:04.483Z,9.20
2023-05-20T07:58:04.482Z,8.30
2023-05-20T07:59:04.453Z,8.10
2023-05-20T08:00:04.466Z,7.50
2023-05-20T08:01:04.433Z,7.60
2023-05-20T08:02:04.467Z,7.30
2023-05-20T08:03:04.648Z,6.20
2023-05-20T08:04:04.478Z,7.10
2023-05-20T08:05:04.426Z,6.80
2023-05-20T08:06:04.393Z,6.50
2023-05-20T08:07:04.370Z,8.90
2023-05-20T08:08:04.379Z,10.70
2023-05-20T08:09:04.378Z,8.00
2023-05-20T08:10:04.359Z,7.40
2023-05-20T08:11:04.340Z,7.50
2023-05-20T08:12:04.328Z,9.00
2023-05-20T08:13:04.307Z,8.60
2023-05-20T08:14:04.674Z,9.40
2023-05-20T08:15:04.293Z,8.90
2023-05-20T08:16:04.280Z,8.00
2023-05-20T08:17:04.302Z,7.70
2023-05-20T08:18:04.297Z,9.20
2023-05-20T08:19:04.302Z,9.90
2023-05-20T08:20:04.237Z,11.30
2023-05-20T08:21:04.234Z,8.60
2023-05-20T08:22:04.217Z,8.60
2023-05-20T08:23:04.228Z,7.90
2023-05-20T08:24:04.209Z,7.60
2023-05-20T08:25:04.186Z,7.50
2023-05-20T08:26:04.171Z,7.40
2023-05-20T08:27:04.160Z,7.00
2023-05-20T08:28:04.169Z,10.00
2023-05-20T08:29:04.142Z,8.10
2023-05-20T08:30:04.135Z,8.20
2023-05-20T08:31:04.144Z,7.90
2023-05-20T08:32:04.143Z,7.90
2023-05-20T08:33:04.173Z,7.60
2023-05-20T08:34:04.087Z,7.70
2023-05-20T08:35:04.072Z,9.20
2023-05-20T08:36:04.072Z,7.30
2023-05-20T08:37:04.081Z,8.90
2023-05-20T08:38:04.042Z,7.30
2023-05-20T08:39:04.030Z,8.30
2023-05-20T08:40:04.047Z,8.60
2023-05-20T08:41:04.227Z,9.10
2023-05-20T08:42:04.024Z,7.40
2023-05-20T08:43:03.983Z,8.90
2023-05-20T08:44:03.986Z,5.70
2023-05-20T08:45:03.979Z,6.60
2023-05-20T08:46:03.998Z,9.60
2023-05-20T08:47:04.009Z,9.00
2023-05-20T08:48:03.981Z,7.70
2023-05-20T08:49:03.932Z,7.10
2023-05-20T08:50:03.913Z,8.00
2023-05-20T08:51:03.944Z,9.60
2023-05-20T08:52:03.897Z,7.10
2023-05-20T08:53:03.930Z,5.90
2023-05-20T08:54:03.886Z,9.00
2023-05-20T08:55:03.901Z,7.30
2023-05-20T08:56:04.093Z,8.80
2023-05-20T08:57:03.846Z,8.10
2023-05-20T08:58:03.852Z,6.60
2023-05-20T08:59:03.848Z,5.90
2023-05-20T09:00:03.865Z,12.90
2023-05-20T09:01:03.836Z,7.30
2023-05-20T09:02:03.845Z,7.80
2023-05-20T09:03:03.832Z,6.20
2023-05-20T09:04:03.773Z,6.30
2023-05-20T09:05:03.806Z,6.90
2023-05-20T09:06:03.754Z,7.80
2023-05-20T09:07:03.777Z,7.00
2023-05-20T09:08:05.217Z,8.70
2023-05-20T09:09:03.730Z,8.20
2023-05-20T09:10:03.723Z,8.20
2023-05-20T09:11:03.693Z,7.10
2023-05-20T09:12:03.695Z,6.70
2023-05-20T09:13:03.676Z,10.50
2023-05-20T09:14:03.689Z,7.90
2023-05-20T09:15:03.662Z,7.00
2023-05-20T09:16:03.785Z,9.50
2023-05-20T09:17:03.648Z,7.90
2023-05-20T09:18:03.652Z,6.40
2023-05-20T09:19:03.674Z,10.70
2023-05-20T09:20:03.625Z,6.40
2023-05-20T09:21:03.616Z,5.70
2023-05-20T09:22:03.582Z,6.60
2023-05-20T09:23:03.583Z,7.90
2023-05-20T09:24:03.591Z,6.10
2023-05-20T09:25:03.557Z,7.00
2023-05-20T09:26:03.550Z,8.40
2023-05-20T09:27:03.528Z,6.80
2023-05-20T09:28:03.549Z,7.50
2023-05-20T09:29:03.506Z,6.80
2023-05-20T09:30:03.493Z,5.60
2023-05-20T09:31:03.486Z,6.00
2023-05-20T09:32:03.518Z,7.80
2023-05-20T09:33:03.517Z,5.60
2023-05-20T09:34:03.447Z,9.00
2023-05-20T09:35:03.454Z,6.20
2023-05-20T09:36:03.422Z,6.10
2023-05-20T09:37:03.434Z,8.80
2023-05-20T09:38:03.464Z,5.80
2023-05-20T09:39:03.398Z,6.60
2023-05-20T09:40:03.398Z,6.30
2023-05-20T09:41:03.380Z,6.70
2023-05-20T09:42:04.155Z,8.20
2023-05-20T09:43:03.393Z,6.80
2023-05-20T09:44:03.361Z,6.20
2023-05-20T09:45:03.332Z,6.60
2023-05-20T09:46:03.373Z,8.00
2023-05-20T09:47:03.320Z,6.10
2023-05-20T09:48:03.383Z,5.30
2023-05-20T09:49:03.283Z,7.50
2023-05-20T09:50:03.292Z,8.00
2023-05-20T09:51:03.280Z,5.80
2023-05-20T09:52:03.274Z,6.50
2023-05-20T09:53:03.242Z,6.80
2023-05-20T09:54:03.245Z,5.70
2023-05-20T09:55:03.224Z,6.60
2023-05-20T09:56:03.237Z,6.40
2023-05-20T09:57:03.201Z,7.30
2023-05-20T09:58:03.295Z,6.10
2023-05-20T09:59:03.174Z,6.90
2023-05-20T10:00:03.180Z,7.20
2023-05-20T10:01:03.225Z,6.40
2023-05-20T10:02:03.172Z,6.30
2023-05-20T10:03:03.256Z,5.70
2023-05-20T10:04:03.251Z,8.10
2023-05-20T10:05:03.135Z,5.90
2023-05-20T10:06:03.138Z,6.80
2023-05-20T10:07:03.093Z,6.20
2023-05-20T10:08:03.107Z,6.30
2023-05-20T10:09:03.085Z,6.70
2023-05-20T10:10:03.102Z,7.90
2023-05-20T10:11:03.053Z,6.90
2023-05-20T10:12:03.046Z,9.10
2023-05-20T10:13:03.018Z,6.10
2023-05-20T10:14:03.023Z,6.20
2023-05-20T10:15:03.052Z,6.70
2023-05-20T10:16:03.066Z,7.60
2023-05-20T10:17:02.987Z,6.00
2023-05-20T10:18:03.034Z,8.00
2023-05-20T10:19:03.014Z,6.30
2023-05-20T10:20:05.894Z,6.40
2023-05-20T10:21:02.958Z,8.30
2023-05-20T10:22:02.955Z,7.20
2023-05-20T10:23:02.922Z,6.00
2023-05-20T10:24:03.008Z,7.50
2023-05-20T10:25:02.894Z,8.00
2023-05-20T10:26:02.888Z,7.10
2023-05-20T10:27:02.890Z,6.30
2023-05-20T10:28:02.871Z,7.60
2023-05-20T10:29:02.874Z,7.60
2023-05-20T10:30:02.865Z,8.10
2023-05-20T10:31:02.838Z,6.00
2023-05-20T10:32:02.872Z,7.40
2023-05-20T10:33:03.105Z,5.70
2023-05-20T10:34:02.829Z,5.90
2023-05-20T10:35:02.788Z,8.70
2023-05-20T10:36:02.789Z,8.70
2023-05-20T10:37:02.767Z,8.70
2023-05-20T10:38:02.794Z,6.80
2023-05-20T10:39:02.740Z,6.30
2023-05-20T10:40:02.760Z,6.60
2023-05-20T10:41:02.726Z,13.70
2023-05-20T10:42:02.719Z,5.20
2023-05-20T10:43:02.733Z,7.10
2023-05-20T10:44:02.707Z,7.50
2023-05-20T10:45:02.692Z,7.70
2023-05-20T10:46:05.119Z,7.80
2023-05-20T10:47:23.569Z,6.90
2023-05-20T10:48:02.763Z,6.70
2023-05-20T10:49:02.810Z,8.80
2023-05-20T10:50:02.628Z,6.00
2023-05-20T10:51:02.623Z,7.30
2023-05-20T10:52:02.635Z,7.30
2023-05-20T10:53:02.599Z,6.60
2023-05-20T10:54:02.594Z,8.80
2023-05-20T10:55:02.573Z,6.10
2023-05-20T10:56:02.566Z,6.90
2023-05-20T10:57:02.581Z,7.60
2023-05-20T10:58:02.551Z,7.30
2023-05-20T10:59:02.601Z,7.10
2023-05-20T11:00:02.554Z,8.00
2023-05-20T11:01:02.548Z,5.70
2023-05-20T11:02:02.520Z,5.80
2023-05-20T11:03:02.540Z,8.60
2023-05-20T11:04:02.676Z,8.90
2023-05-20T11:05:02.481Z,7.70
2023-05-20T11:06:02.503Z,5.80
2023-05-20T11:07:02.465Z,5.60
2023-05-20T11:08:04.409Z,6.20
2023-05-20T11:09:02.426Z,6.40
2023-05-20T11:10:02.411Z,5.30
2023-05-20T11:11:02.431Z,7.70
2023-05-20T11:12:02.394Z,5.50
2023-05-20T11:13:02.387Z,6.50
2023-05-20T11:14:02.379Z,7.10
2023-05-20T11:15:02.368Z,5.70
2023-05-20T11:16:02.376Z,5.80
2023-05-20T11:17:02.462Z,8.10
2023-05-20T11:18:02.399Z,5.40
2023-05-20T11:19:02.386Z,6.90
2023-05-20T11:20:02.388Z,6.20
2023-05-20T11:21:02.311Z,5.60
2023-05-20T11:22:02.299Z,6.60
2023-05-20T11:23:02.280Z,5.50
2023-05-20T11:24:02.279Z,6.40
2023-05-20T11:25:02.275Z,5.80
2023-05-20T11:26:02.249Z,4.70
2023-05-20T11:27:02.248Z,6.70
2023-05-20T11:28:02.225Z,5.90
2023-05-20T11:29:02.221Z,8.10
2023-05-20T11:30:02.245Z,7.10
2023-05-20T11:31:02.187Z,7.40
2023-05-20T11:32:02.335Z,5.30
2023-05-20T11:33:02.230Z,4.50
2023-05-20T11:34:02.554Z,5.70
2023-05-20T11:35:02.167Z,7.30
2023-05-20T11:36:02.520Z,5.80
2023-05-20T11:37:02.122Z,6.00
2023-05-20T11:38:02.118Z,4.60
2023-05-20T11:39:02.132Z,6.20
2023-05-20T11:40:02.096Z,6.50
2023-05-20T11:41:02.076Z,5.80
2023-05-20T11:42:02.071Z,5.30
2023-05-20T11:43:02.055Z,6.30
2023-05-20T11:44:02.083Z,6.90
2023-05-20T11:45:02.048Z,6.30
2023-05-20T11:46:02.058Z,5.70
2023-05-20T11:47:02.038Z,6.50
2023-05-20T11:48:02.071Z,6.20
2023-05-20T11:49:02.004Z,6.40
2023-05-20T11:50:01.990Z,6.60
2023-05-20T11:51:02.365Z,4.40
2023-05-20T11:52:01.959Z,7.40
2023-05-20T11:53:01.987Z,5.10
2023-05-20T11:54:01.995Z,5.90
2023-05-20T11:55:01.928Z,5.90
2023-05-20T11:56:01.932Z,7.20
2023-05-20T11:57:01.910Z,4.90
2023-05-20T11:58:01.915Z,6.50
2023-05-20T11:59:01.895Z,4.80
2023-05-20T12:00:01.878Z,7.30
2023-05-20T12:01:09.550Z,5.30
2023-05-20T12:02:01.881Z,5.90
2023-05-20T12:03:01.982Z,6.50
2023-05-20T12:04:02.040Z,5.80
2023-05-20T12:05:02.012Z,6.40
2023-05-20T12:06:01.818Z,6.20
2023-05-20T12:07:01.830Z,6.10
2023-05-20T12:08:01.797Z,5.30
2023-05-20T12:09:01.792Z,6.00
2023-05-20T12:10:01.778Z,5.90
2023-05-20T12:11:01.775Z,4.70
2023-05-20T12:12:01.768Z,4.10
2023-05-20T12:13:01.782Z,5.40
2023-05-20T12:14:01.735Z,6.30
2023-05-20T12:15:01.726Z,6.10
2023-05-20T12:16:01.742Z,6.80
2023-05-20T12:17:01.728Z,4.80
2023-05-20T12:18:01.739Z,6.40
2023-05-20T12:19:01.745Z,5.50
2023-05-20T12:20:01.662Z,5.90
2023-05-20T12:21:01.704Z,6.10
2023-05-20T12:22:01.652Z,5.50
2023-05-20T12:23:01.665Z,4.90
2023-05-20T12:24:01.618Z,6.60
2023-05-20T12:25:01.634Z,7.00
2023-05-20T12:26:01.615Z,6.80
2023-05-20T12:27:01.593Z,6.10
2023-05-20T12:28:01.576Z,6.90
2023-05-20T12:29:01.615Z,5.60
2023-05-20T12:30:01.586Z,5.50
2023-05-20T12:31:01.547Z,5.70
2023-05-20T12:32:01.611Z,6.10
2023-05-20T12:33:01.596Z,6.20
2023-05-20T12:34:01.512Z,5.60
2023-05-20T12:35:01.527Z,6.70
2023-05-20T12:36:01.493Z,5.50
2023-05-20T12:37:01.491Z,6.10
2023-05-20T12:38:01.489Z,8.90
2023-05-20T12:39:01.481Z,5.30
2023-05-20T12:40:01.508Z,5.10
2023-05-20T12:41:01.444Z,5.60
2023-05-20T12:42:01.452Z,5.20
2023-05-20T12:43:01.422Z,8.40
2023-05-20T12:44:01.424Z,6.20
2023-05-20T12:45:01.402Z,4.80
2023-05-20T12:46:01.380Z,5.60
2023-05-20T12:47:01.407Z,6.20
2023-05-20T12:48:01.409Z,5.70
2023-05-20T12:49:01.375Z,6.40
2023-05-20T12:50:01.340Z,7.30
2023-05-20T12:51:01.334Z,6.80
2023-05-20T12:52:03.547Z,8.40
2023-05-20T12:53:01.337Z,5.60
2023-05-20T12:54:01.321Z,7.10
2023-05-20T12:55:01.310Z,6.50
2023-05-20T12:56:01.278Z,6.30
2023-05-20T12:57:01.273Z,5.70
2023-05-20T12:58:01.322Z,4.70
2023-05-20T12:59:01.268Z,5.40
2023-05-20T13:00:01.233Z,7.40
2023-05-20T13:01:01.241Z,6.00
2023-05-20T13:02:01.246Z,6.40
2023-05-20T13:03:01.335Z,7.40
2023-05-20T13:04:01.186Z,6.90
2023-05-20T13:05:01.191Z,4.90
2023-05-20T13:06:01.176Z,12.60
2023-05-20T13:07:01.183Z,6.30
2023-05-20T13:08:01.174Z,6.10
2023-05-20T13:09:01.190Z,6.40
2023-05-20T13:10:01.182Z,8.40
2023-05-20T13:11:01.130Z,6.50
2023-05-20T13:12:01.139Z,7.30
2023-05-20T13:13:01.111Z,6.10
2023-05-20T13:14:01.091Z,7.80
2023-05-20T13:15:01.122Z,5.80
2023-05-20T13:16:01.059Z,6.60
2023-05-20T13:17:01.169Z,8.20
2023-05-20T13:18:01.071Z,6.00